Creswell, Oregon
Current Conditions -  °F | °C
As of 12:54 AM on Friday 31 Oct 2014 (Local Time) from KEUG Reporting Station
Light Rain Light Rain  
Wind Chill: 57°   Ceiling: 7500
Heat Index: 57°   Visibility: 10mi
Dew Point: 55°   Wind: 10mph
Humidity: 93%   Direction: 140°SE
Pressure: 29.74"   Gusts: NA
Location:  43.92°N, 123.02°W
Report Text: KEUG 310754Z AUTO 14009KT 10SM -RA SCT032 OVC075 14/13 A2974 RMK AO2 SLP069 P0003 T01390128 401560117
Loading
Personal Weather Stations






























Interactive Weather Map
Tropical Storm Tracking
New forecast layout! Learn more

10-Day Weather Forecast

Advertisements
Track Severe Weather on mobile